Time;durP1;ratioP1;P1;durP2;ratioP2;P2;SDS_P1;SDS_P2;PMS_P1;PMS_P2;Temp;Humidity;BMP_temperature;BMP_pressure;BME280_temperature;BME280_humidity;BME280_pressure;Samples;Min_cycle;Max_cycle;Signal;HPM_P1;HPM_P2
2022/06/17 00:00:16;;;;;;;1.70;1.55;;;;;;;19.25;69.78;100013.19;5007430;28;20044;-83
2022/06/17 00:02:41;;;;;;;2.53;1.83;;;;;;;19.23;69.95;100015.03;5002423;28;20104;-83
2022/06/17 00:05:08;;;;;;;2.08;1.80;;;;;;;19.09;69.94;100004.97;4994632;28;20030;-83
2022/06/17 00:07:34;;;;;;;2.42;1.67;;;;;;;19.02;69.37;100007.06;5006144;28;20132;-84
2022/06/17 00:10:00;;;;;;;2.08;1.48;;;;;;;19.20;69.35;100016.06;4987701;28;20429;-83
2022/06/17 00:12:25;;;;;;;1.48;1.13;;;;;;;18.99;66.62;100003.66;5006322;28;20037;-83
2022/06/17 00:17:35;;;;;;;1.75;1.25;;;;;;;19.08;66.22;100003.25;5006933;28;20041;-83
2022/06/17 00:20:04;;;;;;;2.13;1.05;;;;;;;19.17;66.37;100012.63;5010383;28;20037;-83
2022/06/17 00:22:29;;;;;;;1.27;1.10;;;;;;;19.17;66.39;99992.13;5010997;28;20099;-83
2022/06/17 00:24:55;;;;;;;2.15;0.88;;;;;;;19.30;66.62;100013.81;4996018;28;20030;-83
2022/06/17 00:27:20;;;;;;;4.53;1.88;;;;;;;19.14;66.76;99987.78;4990621;28;20560;-83
2022/06/17 00:29:46;;;;;;;2.35;1.65;;;;;;;19.28;66.99;100029.09;4991106;28;20115;-83
2022/06/17 00:32:11;;;;;;;2.15;1.90;;;;;;;19.12;66.59;99995.03;5009061;28;20038;-83
2022/06/17 00:34:36;;;;;;;1.63;1.17;;;;;;;19.17;66.18;100000.16;5003482;28;20058;-83
2022/06/17 00:37:03;;;;;;;1.85;1.35;;;;;;;19.14;66.08;99982.44;5007936;28;20034;-83
2022/06/17 00:39:32;;;;;;;2.22;1.27;;;;;;;19.11;66.18;99993.28;5009645;28;20034;-83
2022/06/17 00:42:05;;;;;;;3.72;2.13;;;;;;;19.25;64.96;100008.69;5010041;28;20068;-83
2022/06/17 00:44:49;;;;;;;1.40;0.90;;;;;;;19.12;64.98;99994.13;4996435;28;20048;-83
2022/06/17 00:48:11;;;;;;;2.40;1.23;;;;;;;19.11;65.25;99985.25;5009638;28;20107;-83
2022/06/17 00:50:48;;;;;;;3.33;1.25;;;;;;;19.12;65.11;99987.00;4986356;28;20049;-83
2022/06/17 00:53:19;;;;;;;2.65;1.77;;;;;;;19.09;64.50;99989.81;4987643;28;20068;-83
2022/06/17 00:56:01;;;;;;;1.65;1.35;;;;;;;18.94;64.81;99987.84;5002280;28;20547;-83
2022/06/17 00:58:57;;;;;;;2.08;1.25;;;;;;;18.99;64.28;99996.50;4989105;28;20154;-83
2022/06/17 01:01:24;;;;;;;1.77;1.35;;;;;;;18.43;65.80;99968.66;4993661;28;20563;-83
2022/06/17 01:03:57;;;;;;;2.10;1.40;;;;;;;18.48;67.35;100005.84;5009389;28;20087;-83
2022/06/17 01:06:30;;;;;;;1.80;1.40;;;;;;;18.22;67.96;99978.44;4990669;28;20076;-83
2022/06/17 01:12:05;;;;;;;2.25;1.35;;;;;;;17.98;70.13;99989.22;5008426;28;20103;-83
2022/06/17 01:14:31;;;;;;;1.73;1.33;;;;;;;17.67;70.06;99955.75;5008612;28;20485;-84
2022/06/17 01:16:58;;;;;;;1.55;1.05;;;;;;;17.84;70.42;99991.53;5008322;28;20038;-84
2022/06/17 01:19:39;;;;;;;1.02;0.95;;;;;;;17.85;70.92;100002.13;5008507;28;20594;-83
2022/06/17 01:22:13;;;;;;;1.92;1.42;;;;;;;17.91;71.62;100001.06;4990835;28;20045;-83
2022/06/17 01:24:39;;;;;;;2.08;1.00;;;;;;;18.07;71.04;99991.50;5007831;28;20120;-84
2022/06/17 01:27:05;;;;;;;1.63;1.10;;;;;;;18.11;70.84;99980.69;5008494;28;20113;-83
2022/06/17 01:29:33;;;;;;;2.45;1.50;;;;;;;17.92;71.46;99970.78;5008646;28;20416;-84
2022/06/17 01:31:58;;;;;;;2.00;1.30;;;;;;;17.88;71.74;99964.69;5008788;28;20117;-84
2022/06/17 01:34:24;;;;;;;2.13;1.40;;;;;;;18.02;71.81;99990.81;5008559;28;20116;-84
2022/06/17 01:36:50;;;;;;;2.33;1.40;;;;;;;17.97;71.92;99994.63;5008386;28;20401;-83
2022/06/17 01:39:17;;;;;;;2.75;2.17;;;;;;;17.83;71.70;99971.97;5008991;28;20034;-84
2022/06/17 01:41:45;;;;;;;2.33;1.58;;;;;;;17.92;72.36;99984.13;4993470;28;20057;-83
2022/06/17 01:44:33;;;;;;;2.25;1.70;;;;;;;17.89;72.12;99970.91;4989013;28;20799;-84
2022/06/17 01:47:01;;;;;;;1.30;1.20;;;;;;;17.93;72.54;99958.28;4967468;28;20187;-84
2022/06/17 01:49:39;;;;;;;1.67;1.58;;;;;;;18.15;71.77;99983.19;5008240;28;20034;-85
2022/06/17 01:52:12;;;;;;;1.38;1.08;;;;;;;18.19;71.29;99957.22;5008075;28;20510;-84
2022/06/17 01:54:47;;;;;;;1.77;1.33;;;;;;;18.14;71.93;99976.09;5006382;28;20037;-84
2022/06/17 01:57:16;;;;;;;3.17;1.67;;;;;;;18.01;72.08;99974.84;5005278;28;20586;-84
2022/06/17 01:59:51;;;;;;;2.15;1.50;;;;;;;18.01;71.99;99951.72;5008573;28;20088;-84
2022/06/17 02:02:18;;;;;;;;;;;;;;;17.97;72.93;99974.13;4998543;28;20777;-84
2022/06/17 02:04:48;;;;;;;3.17;2.42;;;;;;;17.93;73.08;99971.63;4988946;28;20319;-84
2022/06/17 02:07:20;;;;;;;2.15;1.17;;;;;;;18.01;72.87;99974.84;4992585;28;20042;-84
2022/06/17 02:09:47;;;;;;;2.33;1.48;;;;;;;17.81;73.20;99956.97;4988707;28;20042;-84
2022/06/17 02:12:14;;;;;;;2.60;1.60;;;;;;;17.96;72.55;99975.03;4990905;28;20038;-84
2022/06/17 02:14:40;;;;;;;3.88;2.65;;;;;;;18.03;72.08;99970.34;4986806;28;20038;-85
2022/06/17 02:17:07;;;;;;;3.85;1.40;;;;;;;18.15;72.24;99985.84;4998668;28;20068;-84
2022/06/17 02:19:36;;;;;;;3.42;1.75;;;;;;;18.04;71.93;99966.72;5008136;28;20037;-85
2022/06/17 02:22:09;;;;;;;5.25;2.33;;;;;;;17.85;72.66;99975.44;4992008;28;20038;-84
2022/06/17 02:24:36;;;;;;;3.25;1.60;;;;;;;17.77;72.00;99974.03;4990600;28;20042;-84
2022/06/17 02:27:05;;;;;;;1.40;1.30;;;;;;;17.79;72.68;99980.19;5008040;28;20041;-84
2022/06/17 02:29:34;;;;;;;3.00;1.63;;;;;;;17.83;72.54;99971.97;5008006;28;20041;-84
2022/06/17 02:32:03;;;;;;;2.47;1.63;;;;;;;17.94;72.12;99974.25;4992735;28;20034;-84
2022/06/17 02:34:29;;;;;;;1.83;1.27;;;;;;;17.91;71.94;99979.72;4998570;28;20049;-84
2022/06/17 02:37:05;;;;;;;2.90;1.83;;;;;;;18.02;71.56;99990.81;4999268;28;20038;-84
2022/06/17 02:39:34;;;;;;;2.55;1.80;;;;;;;17.88;71.62;99963.78;4987945;28;20052;-84
2022/06/17 02:42:00;;;;;;;3.58;1.90;;;;;;;17.89;71.72;99970.91;4987957;28;20045;-84
2022/06/17 02:44:33;;;;;;;3.35;2.70;;;;;;;18.00;71.43;99990.00;4997230;28;20025;-84
2022/06/17 02:47:01;;;;;;;3.22;2.63;;;;;;;17.75;71.99;99962.53;4999680;28;20038;-84
2022/06/17 02:49:33;;;;;;;1.65;1.15;;;;;;;17.84;72.53;99992.41;4988068;28;20065;-84
2022/06/17 02:52:01;;;;;;;1.70;1.35;;;;;;;17.73;72.13;99959.94;4969606;28;20497;-84
2022/06/17 02:54:29;;;;;;;3.33;2.05;;;;;;;17.99;72.02;99990.06;4993295;28;20049;-84
2022/06/17 02:56:57;;;;;;;1.17;1.02;;;;;;;17.96;71.81;99975.03;4988147;28;20404;-83
2022/06/17 02:59:34;;;;;;;4.25;1.83;;;;;;;17.96;72.06;99975.03;4988360;28;20026;-83
2022/06/17 03:02:09;;;;;;;1.90;1.38;;;;;;;17.83;72.16;99984.47;5002845;28;20034;-84
2022/06/17 03:04:34;;;;;;;2.73;1.43;;;;;;;17.94;72.06;99989.41;4997090;28;20044;-84
2022/06/17 03:07:01;;;;;;;2.25;1.95;;;;;;;17.77;72.65;99982.03;4987534;28;20402;-84
2022/06/17 03:09:29;;;;;;;5.18;1.65;;;;;;;17.98;72.29;99994.56;4988048;28;20027;-84
2022/06/17 03:12:07;;;;;;;2.28;1.48;;;;;;;18.02;72.22;99988.13;5001547;28;20028;-84
2022/06/17 03:14:49;;;;;;;2.30;1.50;;;;;;;18.03;72.41;99984.53;4990392;28;20177;-84
2022/06/17 03:17:18;;;;;;;1.52;1.02;;;;;;;17.88;72.61;99959.34;4986778;28;20030;-84
2022/06/17 03:19:46;;;;;;;3.60;2.33;;;;;;;17.98;72.55;99988.31;4986049;28;20030;-84
2022/06/17 03:22:13;;;;;;;3.42;2.28;;;;;;;18.16;71.81;99992.91;4995182;28;20076;-83
2022/06/17 03:24:48;;;;;;;2.42;1.30;;;;;;;18.16;72.29;100000.06;4999430;28;20113;-83
2022/06/17 03:27:16;;;;;;;;;;;;;;;18.23;72.64;100002.41;4987662;28;20053;-84
2022/06/17 03:29:45;;;;;;;1.40;1.20;;;;;;;18.12;72.29;99958.38;4986603;28;19922;-83
2022/06/17 03:32:24;;;;;;;2.15;1.38;;;;;;;18.34;72.27;99985.94;4969683;28;20835;-84
2022/06/17 03:34:53;;;;;;;1.42;0.88;;;;;;;18.54;71.89;100005.59;4991096;28;20054;-87
2022/06/17 03:37:39;;;;;;;3.17;2.10;;;;;;;18.68;71.22;100005.84;4988472;28;20044;-84
2022/06/17 03:40:28;;;;;;;3.00;2.33;;;;;;;18.61;71.76;99996.34;5001937;28;20038;-84
2022/06/17 03:43:11;;;;;;;5.65;2.20;;;;;;;18.87;70.83;100013.09;4999986;28;20100;-83
2022/06/17 03:45:45;;;;;;;4.68;2.30;;;;;;;18.92;69.58;100011.06;4998687;28;20036;-86
2022/06/17 03:48:29;;;;;;;3.65;2.42;;;;;;;19.03;68.96;100005.25;5004646;28;20088;-84
2022/06/17 03:50:55;;;;;;;4.30;3.30;;;;;;;19.13;68.99;100015.44;5005130;28;20046;-84
2022/06/17 03:53:27;;;;;;;2.25;1.58;;;;;;;19.14;68.33;99995.81;4989814;28;20038;-84
2022/06/17 03:55:57;;;;;;;3.65;2.15;;;;;;;19.38;66.19;100018.81;5010631;28;20045;-83
2022/06/17 03:58:23;;;;;;;3.50;2.13;;;;;;;19.43;65.46;100015.00;5014952;28;20120;-84
2022/06/17 04:00:56;;;;;;;4.40;2.75;;;;;;;19.53;64.16;100009.22;5014198;28;20112;-85
2022/06/17 04:03:29;;;;;;;5.93;2.63;;;;;;;19.54;64.30;99990.44;5013809;28;20484;-90
2022/06/17 04:05:59;;;;;;;3.63;2.13;;;;;;;19.75;64.76;100017.94;5013769;28;20030;-88
2022/06/17 04:08:25;;;;;;;4.55;2.78;;;;;;;19.90;64.85;100012.84;5014057;28;20500;-88
2022/06/17 04:10:51;;;;;;;5.07;2.92;;;;;;;20.06;63.60;100015.63;5014400;28;20068;-87
2022/06/17 04:13:19;;;;;;;5.30;3.25;;;;;;;20.09;62.80;100007.44;5013964;28;20060;-87
2022/06/17 04:16:05;;;;;;;3.53;2.15;;;;;;;20.10;62.22;100009.19;5013561;28;20046;-90
2022/06/17 04:18:35;;;;;;;6.80;3.10;;;;;;;20.11;61.69;99982.34;4996518;28;20034;-89
2022/06/17 04:21:03;;;;;;;4.18;2.53;;;;;;;19.85;60.32;99995.19;5010186;28;20026;-88
2022/06/17 04:23:33;;;;;;;5.15;3.03;;;;;;;19.82;62.51;100014.06;4995676;28;20028;-89
2022/06/17 04:26:04;;;;;;;6.38;2.95;;;;;;;19.92;61.32;100018.97;5014503;28;20034;-86
2022/06/17 04:28:37;;;;;;;3.63;2.42;;;;;;;20.12;61.26;100016.19;5003408;28;20026;-88
2022/06/17 04:31:09;;;;;;;8.85;2.53;;;;;;;20.09;62.09;99978.84;4987677;28;20411;-90
2022/06/17 04:33:48;;;;;;;3.15;2.40;;;;;;;20.29;61.24;99988.56;5013742;28;20514;-92
2022/06/17 04:36:22;;;;;;;3.45;3.13;;;;;;;20.38;61.08;99996.13;4991605;28;20050;-89
2022/06/17 04:39:00;;;;;;;4.45;2.63;;;;;;;20.77;58.54;99991.50;4993959;28;20038;-88
2022/06/17 04:41:31;;;;;;;2.95;1.80;;;;;;;20.92;56.89;99973.75;4996717;28;20066;-86
2022/06/17 04:43:59;;;;;;;3.20;1.90;;;;;;;21.01;56.93;100001.91;5001213;28;20033;-89
2022/06/17 04:46:42;;;;;;;5.13;1.88;;;;;;;21.26;55.98;100014.84;4994326;28;20041;-89
2022/06/17 04:49:21;;;;;;;2.80;1.52;;;;;;;21.15;54.96;100004.69;4993712;28;20034;-89
2022/06/17 04:51:48;;;;;;;3.80;2.03;;;;;;;21.06;55.65;100015.91;4995973;28;20030;-89
2022/06/17 04:54:15;;;;;;;2.10;1.73;;;;;;;21.29;55.51;99995.88;4996940;28;20042;-89
2022/06/17 04:56:46;;;;;;;1.98;1.42;;;;;;;21.39;55.04;99988.19;4998455;28;20057;-92
2022/06/17 04:59:38;;;;;;;2.75;1.85;;;;;;;21.83;54.10;100006.34;4993978;28;20420;-91
2022/06/17 05:02:10;;;;;;;2.08;1.85;;;;;;;21.90;53.14;99980.84;4995344;28;20128;-90
2022/06/17 05:04:36;;;;;;;6.50;1.88;;;;;;;21.75;52.90;99971.88;4993325;28;20045;-91
2022/06/17 05:07:01;;;;;;;2.08;1.15;;;;;;;21.95;53.16;100021.75;4993066;28;20030;-91
2022/06/17 05:09:32;;;;;;;2.25;1.85;;;;;;;22.18;53.75;100027.59;4993972;28;20456;-90
2022/06/17 05:12:15;;;;;;;4.97;1.40;;;;;;;22.26;53.11;100011.03;4993306;28;20172;-90
2022/06/17 05:15:10;;;;;;;24.63;4.63;;;;;;;22.52;53.30;100005.03;4976256;28;20121;-89
2022/06/17 05:17:38;;;;;;;2.92;1.45;;;;;;;22.50;53.80;99998.03;4993692;28;20049;-90
2022/06/17 05:20:05;;;;;;;2.88;1.25;;;;;;;22.62;52.08;100007.19;4993797;28;20030;-89
2022/06/17 05:22:41;;;;;;;2.92;1.42;;;;;;;22.85;51.63;99986.97;4993259;28;20030;-90
2022/06/17 05:25:31;;;;;;;2.53;1.50;;;;;;;23.38;51.66;100011.50;4992455;28;20084;-90
2022/06/17 05:27:56;;;;;;;2.33;1.73;;;;;;;23.17;50.47;100008.31;4991824;28;20031;-89
2022/06/17 05:30:22;;;;;;;3.38;1.92;;;;;;;23.56;49.39;100012.16;4992919;28;20033;-90
2022/06/17 05:32:51;;;;;;;3.80;2.85;;;;;;;23.84;48.58;100008.56;4992808;28;20485;-91
2022/06/17 05:35:18;;;;;;;3.42;1.83;;;;;;;24.16;48.67;100000.19;5002467;28;20042;-91
2022/06/17 05:37:44;;;;;;;3.80;2.28;;;;;;;23.97;48.34;100002.38;5011474;28;20034;-90
2022/06/17 05:40:10;;;;;;;3.15;1.77;;;;;;;23.39;50.22;99981.78;5012824;28;20041;-92
2022/06/17 05:42:37;;;;;;;2.75;1.92;;;;;;;23.63;50.27;100002.72;5010965;28;20115;-91
2022/06/17 05:45:04;;;;;;;2.35;1.67;;;;;;;23.12;52.96;99988.91;5012694;28;20036;-91
2022/06/17 05:47:29;;;;;;;3.40;2.20;;;;;;;22.79;53.22;99971.19;5012906;28;20064;-91
2022/06/17 05:49:55;;;;;;;3.67;2.13;;;;;;;24.00;50.40;99976.09;4994650;28;20127;-93
2022/06/17 05:52:20;;;;;;;1.88;1.65;;;;;;;24.63;48.88;100001.50;4997925;28;20030;-92
2022/06/17 05:54:46;;;;;;;2.65;1.70;;;;;;;24.65;46.60;99948.34;5010997;28;20048;-90
2022/06/17 05:57:12;;;;;;;4.00;1.92;;;;;;;24.63;47.78;99966.47;5003809;28;20035;-93
2022/06/17 05:59:37;;;;;;;4.80;2.35;;;;;;;24.62;47.22;99958.47;5011284;28;20032;-90
2022/06/17 06:02:04;;;;;;;3.78;2.33;;;;;;;24.52;47.91;99987.03;5011338;28;20088;-90
2022/06/17 06:04:31;;;;;;;2.95;2.15;;;;;;;24.40;49.87;99959.91;4994171;28;20145;-96
2022/06/17 06:06:57;;;;;;;3.92;2.35;;;;;;;24.86;47.82;99982.88;4993884;28;20034;-86
2022/06/17 06:09:22;;;;;;;3.38;1.70;;;;;;;24.26;49.12;99968.94;5011965;28;20112;-85
2022/06/17 06:11:48;;;;;;;6.80;2.17;;;;;;;24.66;48.57;99960.00;5010418;28;20479;-91
2022/06/17 06:14:13;;;;;;;2.30;1.50;;;;;;;24.85;48.59;99959.56;5011920;28;20412;-86
2022/06/17 06:16:39;;;;;;;4.25;3.38;;;;;;;24.59;49.66;99977.56;5009314;28;20065;-85
2022/06/17 06:19:05;;;;;;;3.75;2.78;;;;;;;24.54;47.61;99961.66;5012007;28;20034;-86
2022/06/17 06:21:31;;;;;;;2.90;1.90;;;;;;;24.56;49.48;99970.53;5010950;28;20072;-84
2022/06/17 06:23:56;;;;;;;2.60;1.65;;;;;;;24.12;50.02;99969.88;5011692;28;20069;-84
2022/06/17 06:26:23;;;;;;;2.30;1.45;;;;;;;24.43;49.67;99977.72;5011777;28;20030;-84
2022/06/17 06:28:49;;;;;;;2.47;1.77;;;;;;;24.58;47.50;99990.19;5011504;28;20041;-83
2022/06/17 06:31:24;;;;;;;2.00;1.60;;;;;;;24.89;49.33;99984.50;5012049;28;20033;-84
2022/06/17 06:33:50;;;;;;;3.00;1.95;;;;;;;25.18;46.31;99982.44;5011589;28;20034;-84
2022/06/17 06:36:15;;;;;;;3.47;2.20;;;;;;;24.86;48.53;99973.94;5011219;28;20128;-84
2022/06/17 06:38:41;;;;;;;2.15;1.33;;;;;;;24.69;46.35;99950.84;5010619;28;20472;-84
2022/06/17 06:41:06;;;;;;;3.95;1.58;;;;;;;25.06;43.80;99962.59;5011334;28;20030;-84
2022/06/17 06:43:33;;;;;;;2.88;1.70;;;;;;;24.69;46.71;99975.13;5010915;28;20022;-84
2022/06/17 06:45:59;;;;;;;3.05;2.38;;;;;;;25.16;45.74;99973.56;5010789;28;20034;-86
2022/06/17 06:48:26;;;;;;;2.35;1.70;;;;;;;24.99;47.75;99939.69;4992121;28;20165;-84
2022/06/17 06:50:52;;;;;;;2.70;1.70;;;;;;;25.45;44.53;99932.84;4991560;28;20113;-84
2022/06/17 06:53:18;;;;;;;4.60;1.70;;;;;;;25.84;44.65;99961.47;4992104;28;20030;-84
2022/06/17 06:55:44;;;;;;;1.90;1.45;;;;;;;26.22;43.75;99957.72;5000339;28;20124;-84
2022/06/17 06:58:14;;;;;;;1.88;1.50;;;;;;;26.85;42.46;99941.19;5011650;28;20030;-85
2022/06/17 07:00:44;;;;;;;5.22;1.92;;;;;;;26.70;43.45;99947.81;5010517;28;20038;-85
2022/06/17 07:03:11;;;;;;;2.17;1.70;;;;;;;27.03;42.47;99913.63;5011599;28;20030;-84
2022/06/17 07:05:43;;;;;;;1.50;1.38;;;;;;;27.42;40.77;99912.28;4992279;28;20135;-86
2022/06/17 07:08:11;;;;;;;1.98;1.50;;;;;;;27.93;40.73;99913.47;5011486;28;20108;-86
2022/06/17 07:10:38;;;;;;;2.35;1.60;;;;;;;26.93;43.16;99916.22;5011435;28;20025;-87
2022/06/17 07:13:05;;;;;;;2.80;1.27;;;;;;;26.87;41.12;99911.28;5011300;28;20089;-84
2022/06/17 07:15:31;;;;;;;2.85;1.63;;;;;;;27.32;43.70;99903.16;4989116;28;20035;-84
2022/06/17 07:18:17;;;;;;;1.10;0.85;;;;;;;28.15;39.99;99877.28;4990336;28;20052;-84
2022/06/17 07:20:46;;;;;;;2.33;1.67;;;;;;;27.88;41.82;99899.44;4990992;28;20496;-83
2022/06/17 07:23:12;;;;;;;2.70;1.67;;;;;;;27.82;43.36;99871.03;4991219;28;20037;-84
2022/06/17 07:25:39;;;;;;;2.90;2.22;;;;;;;28.52;40.56;99893.09;5011310;28;20125;-84
2022/06/17 07:28:06;;;;;;;2.70;1.58;;;;;;;27.92;42.38;99881.94;5015839;28;20037;-84
2022/06/17 07:30:33;;;;;;;3.53;2.67;;;;;;;28.03;41.45;99859.38;5017462;28;20025;-83
2022/06/17 07:32:59;;;;;;;2.97;1.92;;;;;;;27.67;39.12;99872.31;5017087;28;20050;-83
2022/06/17 07:35:25;;;;;;;2.70;2.03;;;;;;;28.61;41.74;99888.75;5012893;28;20050;-85
2022/06/17 07:40:36;;;;;;;3.25;1.90;;;;;;;28.87;42.64;99877.44;4997958;28;20041;-84
2022/06/17 07:43:02;;;;;;;6.57;2.53;;;;;;;28.32;39.11;99866.84;5006272;28;20044;-85
2022/06/17 07:45:30;;;;;;;3.38;1.83;;;;;;;28.31;43.18;99854.28;5017577;28;20026;-85
2022/06/17 07:47:57;;;;;;;2.42;1.60;;;;;;;28.46;38.52;99833.09;5016146;28;20042;-85
2022/06/17 07:50:29;;;;;;;2.10;1.70;;;;;;;29.23;38.19;99873.31;5014757;28;20034;-85
2022/06/17 07:52:55;;;;;;;3.47;1.60;;;;;;;29.61;38.26;99876.22;5016681;28;20423;-85
2022/06/17 07:55:21;;;;;;;2.60;1.65;;;;;;;29.76;37.15;99853.06;5015572;28;20034;-85
2022/06/17 07:57:46;;;;;;;2.35;1.70;;;;;;;28.77;36.71;99839.41;5016947;28;20034;-85
2022/06/17 08:00:29;;;;;;;2.53;1.70;;;;;;;28.80;38.25;99824.72;5017368;28;20416;-85
2022/06/17 08:02:55;;;;;;;3.28;1.80;;;;;;;29.63;36.86;99852.50;5017282;28;20105;-85
2022/06/17 08:05:21;;;;;;;2.38;1.92;;;;;;;29.53;36.67;99843.47;5017346;28;20022;-85
2022/06/17 08:07:48;;;;;;;3.13;2.83;;;;;;;28.81;39.08;99848.13;5017470;28;20033;-85
2022/06/17 08:10:17;;;;;;;3.33;1.73;;;;;;;28.75;37.61;99866.69;5017594;28;20026;-84
2022/06/17 08:12:43;;;;;;;3.80;2.15;;;;;;;28.88;36.97;99857.44;4999449;28;20475;-84
2022/06/17 08:15:09;;;;;;;3.35;2.13;;;;;;;29.32;36.15;99828.16;5017244;28;20036;-85
2022/06/17 08:17:34;;;;;;;2.10;1.63;;;;;;;29.49;35.53;99855.63;5016962;28;20076;-85
2022/06/17 08:20:00;;;;;;;2.95;1.95;;;;;;;28.96;37.19;99852.19;5016989;28;20040;-83
2022/06/17 08:22:26;;;;;;;3.03;1.70;;;;;;;29.12;38.04;99859.81;5017350;28;20480;-84
2022/06/17 08:24:55;;;;;;;2.80;2.03;;;;;;;29.34;35.53;99847.03;5016886;28;20121;-84
2022/06/17 08:27:21;;;;;;;3.70;2.25;;;;;;;29.10;39.38;99868.09;5017289;28;20121;-84
2022/06/17 08:29:47;;;;;;;2.85;2.20;;;;;;;29.27;40.39;99847.59;5017188;28;20080;-84
2022/06/17 08:34:57;;;;;;;1.98;1.52;;;;;;;30.37;36.25;99826.56;5017116;28;20435;-83
2022/06/17 08:37:23;;;;;;;2.25;1.70;;;;;;;30.47;37.07;99812.94;5016870;28;20042;-84
2022/06/17 08:39:51;;;;;;;4.70;2.30;;;;;;;30.72;35.25;99835.91;5013700;28;20026;-85
2022/06/17 08:42:32;;;;;;;2.72;1.77;;;;;;;30.84;37.17;99852.91;5014005;28;20084;-84
2022/06/17 08:45:22;;;;;;;5.22;2.13;;;;;;;30.71;33.91;99854.09;5014334;28;20044;-84
2022/06/17 08:48:01;;;;;;;4.60;2.38;;;;;;;29.37;35.49;99816.88;5013810;28;20057;-85
2022/06/17 08:50:59;;;;;;;2.92;1.95;;;;;;;29.68;38.18;99852.09;5013705;28;20036;-85
2022/06/17 08:53:56;;;;;;;2.83;1.75;;;;;;;30.60;34.00;99840.69;5013541;28;20578;-84
2022/06/17 08:56:31;;;;;;;2.95;2.00;;;;;;;30.12;37.35;99839.78;5013299;28;20415;-84
2022/06/17 08:59:23;;;;;;;4.38;1.88;;;;;;;30.11;35.49;99842.66;5013640;28;20033;-84
2022/06/17 09:02:26;;;;;;;3.78;2.70;;;;;;;30.62;34.50;99838.66;5013104;28;20128;-84
2022/06/17 09:05:30;;;;;;;3.40;2.03;;;;;;;30.31;38.56;99828.00;5013250;28;20036;-85
2022/06/17 09:08:14;;;;;;;5.10;2.75;;;;;;;30.57;35.10;99840.09;5013878;28;20041;-85
2022/06/17 09:11:09;;;;;;;4.03;2.25;;;;;;;30.91;35.20;99844.97;5013781;28;20037;-85
2022/06/17 09:13:55;;;;;;;14.65;3.13;;;;;;;31.41;35.05;99847.31;5003871;28;20042;-85
2022/06/17 09:16:24;;;;;;;3.58;2.70;;;;;;;31.61;32.60;99825.41;5013600;28;20103;-85
2022/06/17 09:18:56;;;;;;;2.85;2.42;;;;;;;31.71;33.03;99834.34;5012727;28;20088;-85
2022/06/17 09:21:39;;;;;;;8.35;3.95;;;;;;;31.50;32.72;99823.72;5013265;28;20049;-85
2022/06/17 09:24:07;;;;;;;4.43;1.90;;;;;;;31.19;31.58;99824.09;5012558;28;20496;-84
2022/06/17 09:26:44;;;;;;;3.30;2.58;;;;;;;31.56;31.15;99831.31;5012841;28;20108;-84
2022/06/17 09:29:15;;;;;;;2.78;2.13;;;;;;;31.62;34.22;99817.03;5012787;28;20022;-84
2022/06/17 09:31:47;;;;;;;2.55;1.77;;;;;;;31.66;32.02;99810.28;5012445;28;20411;-84
2022/06/17 09:34:16;;;;;;;3.13;2.03;;;;;;;32.25;30.99;99823.38;5012957;28;20045;-85
2022/06/17 09:36:48;;;;;;;2.05;1.60;;;;;;;32.06;30.59;99788.94;5012046;28;20032;-86
2022/06/17 09:39:33;;;;;;;3.45;2.33;;;;;;;32.08;32.82;99782.31;5013125;28;20033;-85
2022/06/17 09:42:08;;;;;;;3.55;2.35;;;;;;;32.21;32.50;99806.47;5012993;28;20034;-86
2022/06/17 09:44:44;;;;;;;4.57;2.28;;;;;;;31.78;31.88;99791.81;5012088;28;20036;-85
2022/06/17 09:47:19;;;;;;;3.45;2.22;;;;;;;31.54;33.92;99784.25;5012209;28;20060;-86
2022/06/17 09:50:09;;;;;;;3.17;2.00;;;;;;;31.73;32.85;99796.84;5012016;28;20053;-85
2022/06/17 09:52:46;;;;;;;2.88;2.17;;;;;;;31.87;32.79;99785.41;5011796;28;20041;-85
2022/06/17 09:55:16;;;;;;;3.10;2.80;;;;;;;31.79;32.22;99809.88;5012702;28;20511;-85
2022/06/17 09:58:02;;;;;;;3.95;2.38;;;;;;;31.93;34.99;99798.41;5011946;28;20510;-86
2022/06/17 10:00:36;;;;;;;3.42;2.90;;;;;;;31.86;34.03;99761.88;5011447;28;20041;-86
2022/06/17 10:03:08;;;;;;;4.82;3.45;;;;;;;31.95;33.45;99790.91;5012640;28;20488;-84
2022/06/17 10:05:47;;;;;;;2.97;2.08;;;;;;;31.91;32.56;99788.66;5011768;28;20040;-85
2022/06/17 10:08:29;;;;;;;3.05;2.33;;;;;;;31.98;33.46;99764.31;5012266;28;20065;-86
2022/06/17 10:11:09;;;;;;;3.03;2.42;;;;;;;32.15;29.91;99768.03;4992819;28;20045;-85
2022/06/17 10:14:06;;;;;;;4.18;2.45;;;;;;;31.84;32.63;99777.53;4992221;28;20389;-85
2022/06/17 10:20:01;;;;;;;2.58;1.88;;;;;;;32.18;31.94;99756.81;5011753;28;20052;-85
2022/06/17 10:23:04;;;;;;;3.35;2.10;;;;;;;31.73;31.83;99772.31;5010616;28;20046;-85
2022/06/17 10:25:35;;;;;;;3.03;2.13;;;;;;;31.16;32.23;99772.66;5012272;28;20041;-85
2022/06/17 10:28:22;;;;;;;4.13;2.67;;;;;;;31.13;31.89;99762.91;5011246;28;20029;-85
2022/06/17 10:31:10;;;;;;;3.65;2.40;;;;;;;31.31;31.89;99765.66;5011719;28;20033;-87
2022/06/17 10:33:39;;;;;;;2.88;2.28;;;;;;;31.27;32.45;99737.00;5011888;28;20030;-85
2022/06/17 10:36:06;;;;;;;9.18;2.22;;;;;;;31.78;31.91;99746.31;5011729;28;20173;-86
2022/06/17 10:38:38;;;;;;;3.08;2.13;;;;;;;31.60;33.24;99745.47;5012259;28;20030;-86
2022/06/17 10:41:06;;;;;;;3.28;2.33;;;;;;;32.21;32.26;99751.03;5011637;28;20113;-85
2022/06/17 10:43:39;;;;;;;2.80;1.85;;;;;;;32.88;29.97;99723.88;5011641;28;20482;-85
2022/06/17 10:46:10;;;;;;;4.15;2.40;;;;;;;32.47;31.29;99721.84;5011626;28;20503;-86
2022/06/17 10:48:41;;;;;;;3.35;2.40;;;;;;;32.69;29.44;99715.97;5011568;28;20492;-85
2022/06/17 10:51:08;;;;;;;2.83;1.98;;;;;;;32.08;31.02;99721.44;4993890;28;20408;-85
2022/06/17 10:53:39;;;;;;;4.50;2.72;;;;;;;31.48;31.94;99744.84;5011908;28;20044;-84
2022/06/17 10:56:11;;;;;;;6.53;2.55;;;;;;;31.37;32.97;99717.81;5011417;28;20083;-84
2022/06/17 10:58:37;;;;;;;1.98;1.70;;;;;;;31.09;32.59;99733.41;5011564;28;20030;-84
2022/06/17 11:01:07;;;;;;;2.40;1.80;;;;;;;31.58;31.63;99748.34;4993732;28;20104;-84
2022/06/17 11:03:36;;;;;;;4.82;2.03;;;;;;;31.85;33.42;99711.06;5011315;28;20511;-85
2022/06/17 11:06:13;;;;;;;2.35;1.85;;;;;;;32.41;30.60;99724.34;5011300;28;20030;-85
2022/06/17 11:08:54;;;;;;;2.53;2.03;;;;;;;32.66;30.29;99731.66;5011214;28;20567;-85
2022/06/17 11:12:03;;;;;;;3.80;2.90;;;;;;;32.16;31.30;99702.41;5011786;28;20053;-84
2022/06/17 11:14:52;;;;;;;5.28;3.05;;;;;;;32.19;31.21;99715.72;5011726;28;20034;-85
2022/06/17 11:17:24;;;;;;;3.55;2.70;;;;;;;32.55;33.61;99731.06;5011207;28;20492;-85
2022/06/17 11:19:54;;;;;;;2.90;2.47;;;;;;;32.60;28.96;99704.16;4993920;28;20030;-85
2022/06/17 11:22:36;;;;;;;2.67;2.05;;;;;;;31.96;30.69;99696.28;5011182;28;20415;-85
2022/06/17 11:25:24;;;;;;;2.65;1.95;;;;;;;31.93;29.87;99704.81;5011091;28;20514;-85
2022/06/17 11:27:59;;;;;;;3.60;1.85;;;;;;;31.39;31.57;99708.50;5011078;28;20034;-84
2022/06/17 11:30:31;;;;;;;3.45;2.28;;;;;;;31.88;31.55;99682.63;5011017;28;20032;-88
2022/06/17 11:32:59;;;;;;;3.42;2.20;;;;;;;32.31;31.78;99681.69;5010981;28;20477;-85
2022/06/17 11:35:33;;;;;;;2.20;1.85;;;;;;;32.52;31.03;99693.19;5010296;28;20038;-84
2022/06/17 11:38:01;;;;;;;2.55;2.03;;;;;;;31.90;29.93;99699.66;5010907;28;20025;-85
2022/06/17 11:40:35;;;;;;;2.45;2.00;;;;;;;32.22;29.63;99690.84;5010636;28;20026;-85
2022/06/17 11:43:04;;;;;;;2.72;1.95;;;;;;;32.25;31.12;99674.16;5010156;28;20068;-85
2022/06/17 11:45:36;;;;;;;3.38;2.20;;;;;;;32.67;30.57;99664.25;4993151;28;20424;-85
2022/06/17 11:48:15;;;;;;;3.80;2.47;;;;;;;33.28;29.62;99681.28;5010487;28;20389;-85
2022/06/17 11:51:10;;;;;;;3.95;1.73;;;;;;;33.05;30.28;99661.09;5011061;28;20064;-85
2022/06/17 11:54:01;;;;;;;3.13;1.95;;;;;;;33.37;28.95;99674.78;5010035;28;20411;-85
2022/06/17 11:56:38;;;;;;;2.92;2.28;;;;;;;33.32;29.54;99677.19;5010482;28;20041;-88
2022/06/17 11:59:12;;;;;;;7.07;2.17;;;;;;;33.20;29.64;99651.22;5010972;28;20139;-85
2022/06/17 12:01:40;;;;;;;3.25;1.98;;;;;;;33.26;28.95;99666.94;5010109;28;20030;-85
2022/06/17 12:04:26;;;;;;;3.58;2.50;;;;;;;33.47;27.82;99657.38;5010965;28;20420;-85
2022/06/17 12:06:51;;;;;;;3.15;2.08;;;;;;;33.62;29.89;99671.19;5009937;28;20040;-85
2022/06/17 12:09:29;;;;;;;2.63;1.80;;;;;;;33.84;28.82;99670.47;5010959;28;20428;-85